createdAt,value
2019-02-27T00:00:35.851Z,14.87
2019-02-27T00:05:44.055Z,15.33
2019-02-27T00:10:48.636Z,15.20
2019-02-27T00:15:53.085Z,14.93
2019-02-27T00:20:57.522Z,14.40
2019-02-27T00:26:03.062Z,15.10
2019-02-27T00:31:11.130Z,14.93
2019-02-27T00:36:13.532Z,14.53
2019-02-27T00:41:17.951Z,14.90
2019-02-27T00:46:22.341Z,15.33
2019-02-27T00:51:26.740Z,15.43
2019-02-27T00:56:31.141Z,14.77
2019-02-27T01:01:35.492Z,14.33
2019-02-27T01:06:39.900Z,15.13
2019-02-27T01:11:44.245Z,14.30
2019-02-27T01:16:50.157Z,14.53
2019-02-27T01:21:54.742Z,14.23
2019-02-27T01:27:01.740Z,14.97
2019-02-27T01:32:05.219Z,14.90
2019-02-27T01:37:09.586Z,14.47
2019-02-27T01:42:15.005Z,14.70
2019-02-27T01:47:20.057Z,13.90
2019-02-27T01:52:24.410Z,15.10
2019-02-27T01:57:28.777Z,15.60
2019-02-27T02:02:34.878Z,15.10
2019-02-27T02:07:40.272Z,14.80
2019-02-27T02:12:49.693Z,15.33
2019-02-27T02:18:16.438Z,13.97
2019-02-27T02:23:47.933Z,15.27
2019-02-27T02:29:17.921Z,14.43
2019-02-27T02:34:30.317Z,14.63
2019-02-27T02:39:47.356Z,14.67
2019-02-27T02:45:16.029Z,14.10
2019-02-27T02:50:53.912Z,15.57
2019-02-27T02:55:58.391Z,14.93
2019-02-27T03:01:15.407Z,15.03
2019-02-27T03:06:23.479Z,15.70
2019-02-27T03:11:36.970Z,16.13
2019-02-27T03:16:47.079Z,15.30
2019-02-27T03:21:54.637Z,15.37
2019-02-27T03:27:12.562Z,16.02
2019-02-27T03:32:43.593Z,15.23
2019-02-27T03:38:16.177Z,14.53
2019-02-27T03:43:29.295Z,14.97
2019-02-27T03:48:45.328Z,14.97
2019-02-27T03:54:02.911Z,14.93
2019-02-27T03:59:19.446Z,13.83
2019-02-27T04:04:49.982Z,14.23
2019-02-27T04:09:55.322Z,13.93
2019-02-27T04:15:00.580Z,14.37
2019-02-27T04:20:05.821Z,14.50
2019-02-27T04:25:10.215Z,14.10
2019-02-27T04:30:16.213Z,14.10
2019-02-27T04:35:20.699Z,15.10
2019-02-27T04:40:25.059Z,14.30
2019-02-27T04:45:29.453Z,15.40
2019-02-27T04:50:33.808Z,14.40
2019-02-27T04:55:38.194Z,14.37
2019-02-27T05:00:42.583Z,14.77
2019-02-27T05:05:46.952Z,15.27
2019-02-27T05:10:51.290Z,13.70
2019-02-27T05:15:55.679Z,13.93
2019-02-27T05:21:00.047Z,14.40
2019-02-27T05:26:04.487Z,13.90
2019-02-27T05:31:08.874Z,14.17
2019-02-27T05:36:13.279Z,15.07
2019-02-27T05:41:17.671Z,13.77
2019-02-27T05:46:22.032Z,14.80
2019-02-27T05:51:26.398Z,14.20
2019-02-27T05:56:30.744Z,14.63
2019-02-27T06:01:38.011Z,14.87
2019-02-27T06:06:45.003Z,14.57
2019-02-27T06:11:47.327Z,15.30
2019-02-27T06:16:51.703Z,15.25
2019-02-27T06:21:56.861Z,15.80
2019-02-27T06:27:06.111Z,16.67
2019-02-27T06:32:12.131Z,17.57
2019-02-27T06:37:15.498Z,16.75
2019-02-27T06:42:20.492Z,16.67
2019-02-27T06:47:24.935Z,16.00
2019-02-27T06:52:29.376Z,15.87
2019-02-27T06:57:33.690Z,16.20
2019-02-27T07:02:38.043Z,16.50
2019-02-27T07:07:42.499Z,16.67
2019-02-27T07:12:46.821Z,15.50
2019-02-27T07:17:51.219Z,16.50
2019-02-27T07:22:55.561Z,17.43
2019-02-27T07:27:59.908Z,16.87
2019-02-27T07:33:06.756Z,17.40
2019-02-27T07:38:10.319Z,17.80
2019-02-27T07:43:14.676Z,16.70
2019-02-27T07:48:19.126Z,17.13
2019-02-27T07:53:25.617Z,17.77
2019-02-27T07:58:33.822Z,17.67
2019-02-27T08:03:35.803Z,17.93
2019-02-27T08:08:40.165Z,17.73
2019-02-27T08:13:44.643Z,18.60
2019-02-27T08:18:49.034Z,17.53
2019-02-27T08:23:55.010Z,17.80
2019-02-27T08:28:59.569Z,18.83
2019-02-27T08:34:03.998Z,17.40
2019-02-27T08:39:08.349Z,19.03
2019-02-27T08:44:13.311Z,18.73
2019-02-27T08:49:17.777Z,18.90
2019-02-27T08:54:22.159Z,18.37
2019-02-27T08:59:26.633Z,19.00
2019-02-27T09:04:31.025Z,18.77
2019-02-27T09:09:36.258Z,20.03
2019-02-27T09:14:40.790Z,19.03
2019-02-27T09:19:46.869Z,19.27
2019-02-27T09:24:51.349Z,19.33
2019-02-27T09:29:55.718Z,18.87
2019-02-27T09:35:00.264Z,18.23
2019-02-27T09:40:08.350Z,19.07
2019-02-27T09:45:19.167Z,18.97
2019-02-27T09:50:29.696Z,19.00
2019-02-27T09:55:34.137Z,20.10
2019-02-27T10:00:50.040Z,19.17
2019-02-27T10:05:54.443Z,18.83
2019-02-27T10:10:58.848Z,17.53
2019-02-27T10:16:03.776Z,18.57
2019-02-27T10:21:09.454Z,18.00
2019-02-27T10:26:16.588Z,18.83
2019-02-27T10:31:20.592Z,18.13
2019-02-27T10:36:25.023Z,18.20
2019-02-27T10:41:29.440Z,18.63
2019-02-27T10:46:33.920Z,19.10
2019-02-27T10:51:38.297Z,18.93
2019-02-27T10:56:42.688Z,18.87
2019-02-27T11:01:47.151Z,18.77
2019-02-27T11:06:51.672Z,18.33
2019-02-27T11:11:56.123Z,18.87
2019-02-27T11:17:02.690Z,19.03
2019-02-27T11:22:08.365Z,17.20
2019-02-27T11:27:13.497Z,18.50
2019-02-27T11:32:22.889Z,17.70
2019-02-27T11:37:23.952Z,16.93
2019-02-27T11:42:28.947Z,16.48
2019-02-27T11:47:34.441Z,15.95
2019-02-27T11:52:48.274Z,16.20
2019-02-27T11:57:45.183Z,14.70
2019-02-27T12:02:49.544Z,14.70
2019-02-27T12:07:53.942Z,14.73
2019-02-27T12:13:00.817Z,14.43
2019-02-27T12:18:04.475Z,14.53
2019-02-27T12:23:10.174Z,14.67
2019-02-27T12:28:18.097Z,14.23
2019-02-27T12:33:21.347Z,12.63
2019-02-27T12:38:25.762Z,11.33
2019-02-27T12:43:30.232Z,10.83
2019-02-27T12:48:34.643Z,9.80
2019-02-27T12:53:39.183Z,10.63
2019-02-27T12:58:43.606Z,9.13
2019-02-27T13:03:47.965Z,9.30
2019-02-27T13:08:52.868Z,9.87
2019-02-27T13:13:59.717Z,9.83
2019-02-27T13:19:07.053Z,9.70
2019-02-27T13:24:15.195Z,8.80
2019-02-27T13:29:16.949Z,9.27
2019-02-27T13:34:21.326Z,9.17
2019-02-27T13:39:26.322Z,8.73
2019-02-27T13:44:34.430Z,8.97
2019-02-27T13:49:36.975Z,8.83
2019-02-27T13:54:41.420Z,9.00
2019-02-27T13:59:45.792Z,8.77
2019-02-27T14:04:50.209Z,9.33
2019-02-27T14:09:54.639Z,9.23
2019-02-27T14:14:59.020Z,10.47
2019-02-27T14:20:06.762Z,10.63
2019-02-27T14:25:16.581Z,10.80
2019-02-27T14:30:24.164Z,9.50
2019-02-27T14:35:28.748Z,8.80
2019-02-27T14:40:37.761Z,7.87
2019-02-27T14:45:40.839Z,6.90
2019-02-27T14:50:45.466Z,6.23
2019-02-27T14:55:49.968Z,6.43
2019-02-27T15:00:54.375Z,6.87
2019-02-27T15:05:58.818Z,6.13
2019-02-27T15:11:03.300Z,5.87
2019-02-27T15:16:07.648Z,6.50
2019-02-27T15:21:13.161Z,5.33
2019-02-27T15:26:18.142Z,4.93
2019-02-27T15:31:22.487Z,5.23
2019-02-27T15:36:29.650Z,5.20
2019-02-27T15:41:35.406Z,4.20
2019-02-27T15:46:40.271Z,4.07
2019-02-27T15:51:44.736Z,4.00
2019-02-27T15:56:49.120Z,3.80
2019-02-27T16:01:53.535Z,3.83
2019-02-27T16:06:57.975Z,3.97
2019-02-27T16:12:02.436Z,4.37
2019-02-27T16:17:06.823Z,4.78
2019-02-27T16:22:11.387Z,4.90
2019-02-27T16:27:15.784Z,5.63
2019-02-27T16:32:20.243Z,4.87
2019-02-27T16:37:25.377Z,5.45
2019-02-27T16:42:31.654Z,5.50
2019-02-27T16:47:35.838Z,6.50
2019-02-27T16:52:42.160Z,6.62
2019-02-27T16:57:46.284Z,5.97
2019-02-27T17:02:50.633Z,6.33
2019-02-27T17:08:00.375Z,6.90
2019-02-27T17:13:01.083Z,7.10
2019-02-27T17:18:05.624Z,7.10
2019-02-27T17:23:10.885Z,6.90
2019-02-27T17:28:15.455Z,6.53
2019-02-27T17:33:19.823Z,7.20
2019-02-27T17:38:24.362Z,7.43
2019-02-27T17:43:29.635Z,7.43
2019-02-27T17:48:34.063Z,6.73
2019-02-27T17:53:38.442Z,6.07
2019-02-27T17:58:42.801Z,6.40
2019-02-27T18:03:47.245Z,7.50
2019-02-27T18:08:52.435Z,9.27
2019-02-27T18:13:56.964Z,8.10
2019-02-27T18:19:01.383Z,7.70
2019-02-27T18:24:05.771Z,6.93
2019-02-27T18:29:10.263Z,7.23
2019-02-27T18:34:14.834Z,6.20
2019-02-27T18:39:20.371Z,9.70
2019-02-27T18:44:24.835Z,6.43
2019-02-27T18:49:29.316Z,6.80
2019-02-27T18:54:33.786Z,6.47
2019-02-27T18:59:39.449Z,6.63
2019-02-27T19:04:44.120Z,7.00
2019-02-27T19:09:49.318Z,7.43
2019-02-27T19:14:53.798Z,7.30
2019-02-27T19:19:58.152Z,7.77
2019-02-27T19:25:02.581Z,6.63
2019-02-27T19:30:12.733Z,7.57
2019-02-27T19:35:20.985Z,7.07
2019-02-27T19:40:23.748Z,7.83
2019-02-27T19:45:28.123Z,6.87
2019-02-27T19:50:32.581Z,8.27
2019-02-27T19:55:36.951Z,8.37
2019-02-27T20:00:47.946Z,8.90
2019-02-27T20:05:47.489Z,9.40
2019-02-27T20:10:51.893Z,9.50
2019-02-27T20:15:57.505Z,9.83
2019-02-27T20:21:02.233Z,9.53
2019-02-27T20:26:13.862Z,9.80
2019-02-27T20:31:17.965Z,10.10
2019-02-27T20:36:18.946Z,9.77
2019-02-27T20:41:23.410Z,10.33
2019-02-27T20:46:27.789Z,9.93
2019-02-27T20:51:32.203Z,9.93
2019-02-27T20:56:36.789Z,9.73
2019-02-27T21:01:46.704Z,8.57
2019-02-27T21:06:47.723Z,9.90
2019-02-27T21:11:52.913Z,9.27
2019-02-27T21:16:57.290Z,9.03
2019-02-27T21:22:01.626Z,10.50
2019-02-27T21:27:06.090Z,10.30
2019-02-27T21:32:10.546Z,10.30
2019-02-27T21:37:16.228Z,9.77
2019-02-27T21:42:21.778Z,9.70
2019-02-27T21:47:26.211Z,10.07
2019-02-27T21:52:30.600Z,9.80
2019-02-27T21:57:35.049Z,9.40
2019-02-27T22:02:39.503Z,10.37
2019-02-27T22:07:43.903Z,10.73
2019-02-27T22:12:48.251Z,9.80
2019-02-27T22:17:52.807Z,10.40
2019-02-27T22:22:57.372Z,10.27
2019-02-27T22:28:01.721Z,10.40
2019-02-27T22:33:06.191Z,10.37
2019-02-27T22:38:10.544Z,10.33
2019-02-27T22:43:14.912Z,10.07
2019-02-27T22:48:19.283Z,10.90
2019-02-27T22:53:26.198Z,10.50
2019-02-27T22:58:30.876Z,9.83
2019-02-27T23:03:38.803Z,10.07
2019-02-27T23:08:43.629Z,10.03
2019-02-27T23:13:48.522Z,9.70
2019-02-27T23:18:52.977Z,10.03
2019-02-27T23:23:57.365Z,10.10
2019-02-27T23:29:05.544Z,9.93
2019-02-27T23:34:08.821Z,9.67
2019-02-27T23:39:13.269Z,9.93
2019-02-27T23:44:17.629Z,9.57
2019-02-27T23:49:22.047Z,8.87
2019-02-27T23:54:26.468Z,9.30
2019-02-27T23:59:32.968Z,9.23
